Lost Creek, WV

8:48 AM EST on February 27, 2015 (GMT -0500)
North View | Change Station
CLOSE
Current Station
Personal Weather Station
Location: Clarksburg, WV
Elevation: 1045 ft
Nearby Weather Stations
Active Advisory: Special Weather Statement

Elev 1045 ft 39.30 °N, 80.35 °W | Updated 6 seconds ago

Overcast
Overcast
14.7 °F
Feels Like 15 °F
N
0.0
Wind Variable Wind from North
Gusts 0.0 mph

Today
High -- | Low -- °F
--% Chance of Precip.
Yesterday
High -- | Low -- °F
Precip. -- in
6:57 AM 6:11 PM
Waxing Gibbous, 69% visible
Pressure 30.43 in
Visibility 10.0 miles
Clouds Mostly Cloudy 2300 ft
Mostly Cloudy 3300 ft
Windchill 15 °F
Dew Point 7 °F
Humidity 72%
Rainfall 0.00 in
Snow Depth Not available.
UV 1 out of 12
Pollen .60 out of 12
Air Quality Not available.
Flu Activity Not available.
SPECI KCKB 271342Z 33007KT 10SM BKN023 BKN033 M12/M16 A3043 RMK AO2 SNB1256E06 P0000 T11171161

More Conditions Fewer Conditions

Pressure 30.43 in
Visibility 10.0 miles
Clouds Mostly Cloudy 2300 ft
Mostly Cloudy 3300 ft
Windchill 15 °F
Dew Point 7 °F
Humidity 72%
Rainfall 0.00 in
Snow Depth Not available.
UV 1 out of 12
Pollen .60 out of 12
Air Quality Not available.
Flu Activity Not available.
SPECI KCKB 271342Z 33007KT 10SM BKN023 BKN033 M12/M16 A3043 RMK AO2 SNB1256E06 P0000 T11171161

More Conditions Fewer Conditions

10-Day Weather Forecast

Almanac

Astronomy

Feb. 27, 2015 Rise Set
Actual Time
Civil Twilight
Nautical Twilight
Astronomical Twilight
Moon
Length of Visible Light
Length of Day
Tomorrow will be .
, % of the Moon is Illuminated

Today's Extremes

State Highs State Lows

Community

WunderPhotos

Upload Photos

1,800,672 photos uploaded!

WunderBlogs® & News

Nearby

Air Quality

  Air Quality AQ Index Pollutant
Not available.

Snow Depth

Station Depth Elevation

Earthquake Activity

City Distance Mag. Time & Date
Minimum magnitude displayed is 2.5.

Coastal Water Temperatures

Place Temperature

Nearby Weather Stations

Special Weather Statement
Statement as of 6:46 AM EST on February 27, 2015

Here is a Special Weather Statement from the National Weather
Service...

... Light snow this morning making for slick roads...

Light snow this morning has resulted in some snow covered and
slick roads... primarily on untreated secondary and residential
roads. The snow will taper off quickly from west to east by 9
am... with total accumulations around an inch. Locally higher
amounts are possible in the mountains. Motorists are urged to exercise
caution during the morning commute and allow extra time to reach
your destination.